Time;durP1;ratioP1;P1;durP2;ratioP2;P2;SDS_P1;SDS_P2;PMS_P1;PMS_P2;Temp;Humidity;BMP_temperature;BMP_pressure;BME280_temperature;BME280_humidity;BME280_pressure;Samples;Min_cycle;Max_cycle;Signal;HPM_P1;HPM_P2
2022/06/04 00:00:39;;;;;;;1999.90;999.90;;;17.20;99.90;;;;;;5031535;28;20498;-70
2022/06/04 00:03:08;;;;;;;1999.90;999.90;;;17.10;99.90;;;;;;5032549;28;20509;-69
2022/06/04 00:05:37;;;;;;;1999.90;999.90;;;17.00;99.90;;;;;;5032253;28;20949;-70
2022/06/04 00:08:06;;;;;;;1999.90;999.90;;;17.20;99.90;;;;;;5029202;28;20471;-70
2022/06/04 00:16:06;;;;;;;1999.90;999.90;;;17.50;99.90;;;;;;5032286;28;20454;-70
2022/06/04 00:18:35;;;;;;;1999.90;999.90;;;17.50;99.90;;;;;;5030256;28;20523;-70
2022/06/04 00:21:02;;;;;;;1999.90;999.90;;;17.60;99.90;;;;;;5031470;28;20531;-69
2022/06/04 00:23:28;;;;;;;1999.90;999.90;;;17.60;99.90;;;;;;5032614;28;20459;-70
2022/06/04 00:25:57;;;;;;;1999.90;999.90;;;17.40;99.90;;;;;;5032731;28;21029;-71
2022/06/04 00:28:25;;;;;;;1999.90;999.90;;;17.30;99.90;;;;;;5031208;28;20890;-69
2022/06/04 00:30:53;;;;;;;1999.90;999.90;;;17.10;99.90;;;;;;5030867;28;20506;-70
2022/06/04 00:33:20;;;;;;;1999.90;999.90;;;17.20;99.90;;;;;;5048561;28;20454;-70
2022/06/04 00:35:51;;;;;;;1999.90;999.90;;;17.10;99.90;;;;;;5018439;28;20935;-71
2022/06/04 00:38:20;;;;;;;1999.90;999.90;;;17.00;99.90;;;;;;5031489;28;20517;-70
2022/06/04 00:40:50;;;;;;;1999.90;999.90;;;17.20;99.90;;;;;;5030183;28;20467;-70
2022/06/04 00:43:18;;;;;;;1999.90;999.90;;;17.10;99.90;;;;;;5032729;28;20470;-69
2022/06/04 00:46:28;;;;;;;1999.90;999.90;;;17.00;99.90;;;;;;5032439;28;20459;-70
2022/06/04 00:48:54;;;;;;;1999.90;999.90;;;17.00;99.90;;;;;;5031970;28;20867;-70
2022/06/04 00:51:24;;;;;;;1999.90;999.90;;;17.10;99.90;;;;;;5031681;28;20501;-70
2022/06/04 00:53:50;;;;;;;1999.90;999.90;;;17.10;99.90;;;;;;5027540;28;20467;-67
2022/06/04 00:56:31;;;;;;;1999.90;999.90;;;16.80;99.90;;;;;;5031368;28;20463;-69
2022/06/04 00:59:16;;;;;;;1999.90;999.90;;;16.70;99.90;;;;;;5030357;28;20493;-69
2022/06/04 01:01:51;;;;;;;1999.90;999.90;;;16.30;99.90;;;;;;5026277;28;20487;-69
2022/06/04 01:07:27;;;;;;;1999.90;999.90;;;16.20;99.90;;;;;;5028728;28;20475;-69
2022/06/04 01:10:06;;;;;;;1999.90;999.90;;;16.20;99.90;;;;;;5029205;28;20459;-69
2022/06/04 01:12:52;;;;;;;1999.90;999.90;;;15.90;99.90;;;;;;5031384;28;20529;-72
2022/06/04 01:15:39;;;;;;;1999.90;999.90;;;15.40;99.90;;;;;;5032417;28;20463;-70
2022/06/04 01:18:17;;;;;;;1999.90;999.90;;;15.10;99.90;;;;;;5026096;28;20466;-71
2022/06/04 01:20:53;;;;;;;1999.90;999.90;;;15.20;99.90;;;;;;5027292;28;20467;-71
2022/06/04 01:24:08;;;;;;;1999.90;999.90;;;15.20;99.90;;;;;;5031356;28;20462;-71
2022/06/04 01:27:09;;;;;;;1999.90;999.90;;;15.40;99.90;;;;;;5033817;28;20854;-71
2022/06/04 01:29:41;;;;;;;1999.90;999.90;;;15.40;99.90;;;;;;5028175;28;20458;-70
2022/06/04 01:32:14;;;;;;;1999.90;999.90;;;15.60;99.90;;;;;;5029765;28;20576;-71
2022/06/04 01:34:47;;;;;;;1999.90;999.90;;;15.40;99.90;;;;;;5031777;28;20470;-71
2022/06/04 01:37:18;;;;;;;1999.90;999.90;;;15.50;99.90;;;;;;5030336;28;20525;-71
2022/06/04 01:42:49;;;;;;;1999.90;999.90;;;15.50;99.90;;;;;;5004663;28;20479;-68
2022/06/04 01:45:19;;;;;;;1999.90;999.90;;;15.60;99.90;;;;;;5024808;28;20471;-69
2022/06/04 01:47:48;;;;;;;1999.90;999.90;;;15.70;99.90;;;;;;5025914;28;20463;-69
2022/06/04 01:50:18;;;;;;;1999.90;999.90;;;15.60;99.90;;;;;;5031405;28;20508;-69
2022/06/04 01:52:46;;;;;;;1999.90;999.90;;;15.50;99.90;;;;;;5028782;28;20483;-69
2022/06/04 01:55:17;;;;;;;1999.90;999.90;;;15.50;99.90;;;;;;5030212;28;20467;-68
2022/06/04 01:57:47;;;;;;;1999.90;999.90;;;15.50;99.90;;;;;;5027031;28;20463;-71
2022/06/04 02:00:20;;;;;;;1999.90;999.90;;;15.10;99.90;;;;;;5032079;28;20459;-71
2022/06/04 02:02:53;;;;;;;1999.90;999.90;;;14.90;99.90;;;;;;5026722;28;20483;-71
2022/06/04 02:05:24;;;;;;;1999.90;999.90;;;14.70;99.90;;;;;;5030080;28;20467;-71
2022/06/04 02:07:54;;;;;;;1999.90;999.90;;;14.60;99.90;;;;;;5030891;28;20467;-71
2022/06/04 02:10:28;;;;;;;1999.90;999.90;;;14.60;99.90;;;;;;5030071;28;20513;-71
2022/06/04 02:12:57;;;;;;;1999.90;999.90;;;14.70;99.90;;;;;;5030881;28;20487;-71
2022/06/04 02:15:29;;;;;;;1999.90;999.90;;;14.90;99.90;;;;;;5030455;28;20459;-71
2022/06/04 02:17:58;;;;;;;1999.90;999.90;;;15.00;99.90;;;;;;5030819;28;20514;-70
2022/06/04 02:20:26;;;;;;;1999.90;999.90;;;14.90;99.90;;;;;;5032887;28;20468;-71
2022/06/04 02:22:53;;;;;;;1999.90;999.90;;;14.90;99.90;;;;;;5033261;28;20479;-71
2022/06/04 02:25:21;;;;;;;1999.90;999.90;;;14.90;99.90;;;;;;5033611;28;20466;-71
2022/06/04 02:27:49;;;;;;;1999.90;999.90;;;14.80;99.90;;;;;;5026467;28;20549;-71
2022/06/04 02:30:16;;;;;;;1999.90;999.90;;;14.70;99.90;;;;;;5034031;28;20497;-70
2022/06/04 02:32:55;;;;;;;1999.90;999.90;;;14.30;99.90;;;;;;5035288;28;20494;-76
2022/06/04 02:35:26;;;;;;;1999.90;999.90;;;14.00;99.90;;;;;;5035274;28;20461;-71
2022/06/04 02:38:00;;;;;;;1999.90;999.90;;;13.90;99.90;;;;;;5035178;28;20505;-71
2022/06/04 02:40:32;;;;;;;1999.90;999.90;;;13.90;99.90;;;;;;5034923;28;20460;-71
2022/06/04 02:43:08;;;;;;;1999.90;999.90;;;14.00;99.90;;;;;;5032534;28;20498;-71
2022/06/04 02:45:40;;;;;;;1999.90;999.90;;;14.10;99.90;;;;;;5034453;28;20461;-69
2022/06/04 02:48:13;;;;;;;1999.90;999.90;;;14.10;99.90;;;;;;5033145;28;20462;-72
2022/06/04 02:50:44;;;;;;;1999.90;999.90;;;14.30;99.90;;;;;;5033834;28;20459;-71
2022/06/04 02:53:14;;;;;;;1999.90;999.90;;;14.30;99.90;;;;;;5033211;28;20520;-71
2022/06/04 02:55:45;;;;;;;1999.90;999.90;;;14.40;99.90;;;;;;5034636;28;20954;-70
2022/06/04 02:58:16;;;;;;;1999.90;999.90;;;14.40;99.90;;;;;;5032676;28;20614;-71
2022/06/04 03:00:43;;;;;;;1999.90;999.90;;;14.40;99.90;;;;;;5032552;28;20466;-70
2022/06/04 03:03:13;;;;;;;1999.90;999.90;;;14.40;99.90;;;;;;5035760;28;20512;-71
2022/06/04 03:05:52;;;;;;;1999.90;999.90;;;14.60;99.90;;;;;;5028928;28;20826;-71
2022/06/04 03:08:18;;;;;;;1999.90;999.90;;;14.70;99.90;;;;;;5034659;28;20489;-69
2022/06/04 03:10:46;;;;;;;1999.90;999.90;;;14.70;99.90;;;;;;5035056;28;20939;-73
2022/06/04 03:13:12;;;;;;;1999.90;999.90;;;14.80;99.90;;;;;;5035068;28;20566;-70
2022/06/04 03:15:39;;;;;;;1999.90;999.90;;;14.80;99.90;;;;;;5037083;28;20463;-71
2022/06/04 03:18:07;;;;;;;1999.90;999.90;;;14.70;99.90;;;;;;5035141;28;20520;-71
2022/06/04 03:20:35;;;;;;;1999.90;999.90;;;14.60;99.90;;;;;;5034549;28;20585;-68
2022/06/04 03:23:02;;;;;;;1999.90;999.90;;;14.60;99.90;;;;;;5033353;28;20497;-70
2022/06/04 03:25:30;;;;;;;1999.90;999.90;;;14.60;99.90;;;;;;5032509;28;20456;-71
2022/06/04 03:27:57;;;;;;;1999.90;999.90;;;14.70;99.90;;;;;;5033453;28;20509;-71
2022/06/04 03:30:25;;;;;;;1999.90;999.90;;;14.70;99.90;;;;;;5032547;28;20593;-71
2022/06/04 03:32:51;;;;;;;1999.90;999.90;;;14.80;99.90;;;;;;5034389;28;20565;-70
2022/06/04 03:35:18;;;;;;;1999.90;999.90;;;14.90;99.90;;;;;;5032635;28;20541;-70
2022/06/04 03:37:46;;;;;;;1999.90;999.90;;;14.90;99.90;;;;;;5033122;28;20463;-71
2022/06/04 03:40:13;;;;;;;1999.90;999.90;;;14.80;99.90;;;;;;5032686;28;20891;-71
2022/06/04 03:42:40;;;;;;;1999.90;999.90;;;14.90;99.90;;;;;;5033463;28;20533;-71
2022/06/04 03:45:09;;;;;;;1999.90;999.90;;;14.90;99.90;;;;;;5032647;28;20517;-71
2022/06/04 03:47:36;;;;;;;1999.90;999.90;;;14.90;99.90;;;;;;5033708;28;20950;-71
2022/06/04 03:50:04;;;;;;;1999.90;999.90;;;14.80;99.90;;;;;;5035056;28;20469;-71
2022/06/04 03:52:31;;;;;;;1999.90;999.90;;;14.90;99.90;;;;;;5034003;28;20998;-71
2022/06/04 03:54:59;;;;;;;1999.90;999.90;;;14.90;99.90;;;;;;5033542;28;20529;-69
2022/06/04 03:57:44;;;;;;;1999.90;999.90;;;14.90;99.90;;;;;;5034836;28;20460;-71
2022/06/04 04:00:17;;;;;;;1999.90;999.90;;;14.90;99.90;;;;;;5027396;28;20562;-71
2022/06/04 04:02:45;;;;;;;1999.90;999.90;;;14.80;99.90;;;;;;5034125;28;20483;-72
2022/06/04 04:05:15;;;;;;;1999.90;999.90;;;14.80;99.90;;;;;;5033765;28;20463;-71
2022/06/04 04:07:42;;;;;;;1999.90;999.90;;;14.80;99.90;;;;;;5035277;28;20517;-71
2022/06/04 04:10:11;;;;;;;1999.90;999.90;;;14.90;99.90;;;;;;5033554;28;20459;-71
2022/06/04 04:12:38;;;;;;;1999.90;999.90;;;14.80;99.90;;;;;;5032630;28;20486;-71
2022/06/04 04:15:06;;;;;;;1999.90;999.90;;;14.90;99.90;;;;;;5029869;28;20525;-69
2022/06/04 04:17:36;;;;;;;1999.90;999.90;;;14.90;99.90;;;;;;5033591;28;20462;-71
2022/06/04 04:20:04;;;;;;;1999.90;999.90;;;14.80;99.90;;;;;;5030961;28;20459;-71
2022/06/04 04:22:31;;;;;;;1999.90;999.90;;;15.00;99.90;;;;;;5033724;28;20475;-71
2022/06/04 04:24:57;;;;;;;1999.90;999.90;;;15.10;99.90;;;;;;5026897;28;20521;-68
2022/06/04 04:27:25;;;;;;;1999.90;999.90;;;15.10;99.90;;;;;;5033615;28;20460;-71
2022/06/04 04:29:53;;;;;;;1999.90;999.90;;;15.30;99.90;;;;;;5031907;28;20517;-71
2022/06/04 04:32:19;;;;;;;1999.90;999.90;;;15.60;99.90;;;;;;5034965;28;20518;-71
2022/06/04 04:34:46;;;;;;;1999.90;999.90;;;15.80;99.90;;;;;;5040359;28;20451;-70
2022/06/04 04:37:13;;;;;;;1999.90;999.90;;;16.10;99.90;;;;;;5028803;28;20959;-70
2022/06/04 04:39:40;;;;;;;1999.90;999.90;;;16.30;99.90;;;;;;5034662;28;20467;-70
2022/06/04 04:42:07;;;;;;;1999.90;999.90;;;16.60;99.90;;;;;;5033163;28;20541;-71
2022/06/04 04:44:35;;;;;;;1999.90;999.90;;;16.70;99.90;;;;;;5033040;28;20544;-71
2022/06/04 04:47:02;;;;;;;1999.90;999.90;;;16.80;99.90;;;;;;5026481;28;20951;-70
2022/06/04 04:49:28;;;;;;;1999.90;999.90;;;16.90;99.90;;;;;;5033316;28;20463;-71
2022/06/04 04:51:56;;;;;;;1999.90;999.90;;;17.10;99.90;;;;;;5032983;28;21063;-70
2022/06/04 04:54:22;;;;;;;1999.90;999.90;;;16.70;99.90;;;;;;5031956;28;20886;-71
2022/06/04 04:56:49;;;;;;;1999.90;999.90;;;16.90;99.90;;;;;;5034126;28;20518;-71
2022/06/04 04:59:16;;;;;;;1999.90;999.90;;;16.90;99.90;;;;;;5031688;28;20470;-69
2022/06/04 05:01:44;;;;;;;1999.90;999.90;;;16.80;99.90;;;;;;5031910;28;21001;-71
2022/06/04 05:04:11;;;;;;;1999.90;999.90;;;16.80;99.90;;;;;;5032392;28;20467;-71
2022/06/04 05:06:38;;;;;;;1999.90;999.90;;;16.70;99.90;;;;;;5030871;28;20466;-71
2022/06/04 05:09:05;;;;;;;1999.90;999.90;;;16.90;99.90;;;;;;5030742;28;20513;-68
2022/06/04 05:11:33;;;;;;;1999.90;999.90;;;17.20;99.90;;;;;;5034469;28;20507;-69
2022/06/04 05:14:01;;;;;;;1999.90;999.90;;;17.00;99.90;;;;;;5032298;28;20479;-69
2022/06/04 05:16:31;;;;;;;1999.90;999.90;;;17.20;99.90;;;;;;5032085;28;20466;-70
2022/06/04 05:19:01;;;;;;;1999.90;999.90;;;17.20;99.90;;;;;;5032273;28;20885;-70
2022/06/04 05:21:37;;;;;;;1999.90;999.90;;;17.10;99.90;;;;;;5032461;28;20571;-71
2022/06/04 05:24:04;;;;;;;1999.90;999.90;;;17.10;99.90;;;;;;5032090;28;20482;-71
2022/06/04 05:26:32;;;;;;;1999.90;999.90;;;17.10;99.90;;;;;;5033865;28;20572;-71
2022/06/04 05:28:58;;;;;;;1999.90;999.90;;;17.20;99.90;;;;;;5032091;28;20956;-70
2022/06/04 05:31:25;;;;;;;1999.90;999.90;;;17.30;99.90;;;;;;5033262;28;20474;-72
2022/06/04 05:33:52;;;;;;;1999.90;999.90;;;17.30;99.90;;;;;;5030735;28;20482;-72
2022/06/04 05:36:19;;;;;;;1999.90;999.90;;;17.40;99.90;;;;;;5033243;28;20965;-71
2022/06/04 05:38:46;;;;;;;1999.90;999.90;;;17.20;99.90;;;;;;5029066;28;20463;-69
2022/06/04 05:41:14;;;;;;;1999.90;999.90;;;17.30;99.90;;;;;;5031452;28;20503;-71
2022/06/04 05:43:41;;;;;;;1999.90;999.90;;;17.30;99.90;;;;;;5056880;22;20560;-67
2022/06/04 05:46:10;;;;;;;1999.90;999.90;;;17.10;99.90;;;;;;5050725;28;20889;-65
2022/06/04 05:48:38;;;;;;;1999.90;999.90;;;17.20;99.90;;;;;;5049123;28;20515;-67
2022/06/04 05:51:05;;;;;;;1999.90;999.90;;;17.40;99.90;;;;;;5049934;28;20458;-67
2022/06/04 05:53:33;;;;;;;1999.90;999.90;;;17.30;99.90;;;;;;5050283;28;20983;-64
2022/06/04 05:56:00;;;;;;;1999.90;999.90;;;17.50;99.90;;;;;;5048893;28;20874;-66
2022/06/04 05:58:26;;;;;;;1999.90;999.90;;;17.30;99.90;;;;;;5047929;28;20508;-66
2022/06/04 06:00:59;;;;;;;1999.90;999.90;;;17.50;99.90;;;;;;5048814;28;20512;-66
2022/06/04 06:03:26;;;;;;;1999.90;999.90;;;17.60;99.90;;;;;;5049284;28;20500;-66
2022/06/04 06:05:53;;;;;;;1999.90;999.90;;;17.60;99.90;;;;;;5049715;28;20462;-66
2022/06/04 06:08:19;;;;;;;1999.90;999.90;;;17.70;99.90;;;;;;5045501;28;20460;-66
2022/06/04 06:10:48;;;;;;;1999.90;999.90;;;17.70;99.90;;;;;;5049305;28;20496;-65
2022/06/04 06:13:15;;;;;;;1999.90;999.90;;;18.00;99.90;;;;;;5046648;28;20474;-67
2022/06/04 06:15:41;;;;;;;1999.90;999.90;;;18.30;99.90;;;;;;5049181;28;20470;-66
2022/06/04 06:18:09;;;;;;;1999.90;999.90;;;18.40;99.90;;;;;;5047682;28;20462;-66
2022/06/04 06:20:37;;;;;;;1999.90;999.90;;;18.50;99.90;;;;;;5048448;28;20462;-67
2022/06/04 06:23:03;;;;;;;1999.90;999.90;;;18.60;99.90;;;;;;5048278;28;20541;-67
2022/06/04 06:25:30;;;;;;;1999.90;999.90;;;18.60;99.90;;;;;;5048457;28;20462;-65
2022/06/04 06:27:58;;;;;;;1999.90;999.90;;;19.10;99.90;;;;;;5048631;28;20470;-68
2022/06/04 06:30:25;;;;;;;1999.90;999.90;;;18.90;99.90;;;;;;5047762;28;20458;-66
2022/06/04 06:32:51;;;;;;;1999.90;999.90;;;18.80;99.90;;;;;;5048865;28;20911;-66
2022/06/04 06:35:18;;;;;;;1999.90;999.90;;;18.80;99.90;;;;;;5046984;28;20473;-66
2022/06/04 06:37:45;;;;;;;1999.90;999.90;;;18.90;99.90;;;;;;5047631;28;20680;-65
2022/06/04 06:40:13;;;;;;;1999.90;999.90;;;19.00;99.90;;;;;;5047581;28;20463;-65
2022/06/04 06:42:40;;;;;;;1999.90;999.90;;;19.40;99.90;;;;;;5046483;28;20548;-66
2022/06/04 06:45:10;;;;;;;1999.90;999.90;;;19.80;99.90;;;;;;5048190;28;20500;-65
2022/06/04 06:47:36;;;;;;;1999.90;999.90;;;19.60;99.90;;;;;;5047587;28;20957;-64
2022/06/04 06:50:05;;;;;;;1999.90;999.90;;;19.20;99.90;;;;;;5047810;28;20909;-64
2022/06/04 06:52:31;;;;;;;1999.90;999.90;;;19.10;99.90;;;;;;5047712;28;20482;-63
2022/06/04 06:54:58;;;;;;;1999.90;999.90;;;19.30;99.90;;;;;;5047774;28;20490;-64
2022/06/04 06:57:25;;;;;;;1999.90;999.90;;;19.20;99.90;;;;;;5047299;28;20469;-66
2022/06/04 06:59:51;;;;;;;1999.90;999.90;;;19.40;99.90;;;;;;5048456;28;20470;-66
2022/06/04 07:02:19;;;;;;;1999.90;999.90;;;19.60;99.90;;;;;;5050279;28;20583;-66
2022/06/04 07:04:46;;;;;;;1999.90;999.90;;;19.90;99.90;;;;;;5047811;28;20454;-67
2022/06/04 07:07:13;;;;;;;1999.90;999.90;;;20.30;99.90;;;;;;5050468;28;20469;-68
2022/06/04 07:09:44;;;;;;;1999.90;999.90;;;20.30;99.90;;;;;;5052021;28;20462;-64
2022/06/04 07:12:11;;;;;;;1999.90;999.90;;;20.20;99.90;;;;;;5052883;28;20458;-65
2022/06/04 07:14:38;;;;;;;1999.90;999.90;;;20.00;99.90;;;;;;5039570;28;20527;-66
2022/06/04 07:17:07;;;;;;;1999.90;999.90;;;19.10;99.90;;;;;;5054596;28;20455;-66
2022/06/04 07:19:35;;;;;;;1999.90;999.90;;;19.30;99.90;;;;;;5051370;28;20474;-67
2022/06/04 07:22:02;;;;;;;1999.90;999.90;;;19.70;99.90;;;;;;5052221;28;20881;-67
2022/06/04 07:24:29;;;;;;;1999.90;999.90;;;19.80;99.90;;;;;;5046277;28;20509;-66
2022/06/04 07:26:57;;;;;;;1999.90;999.90;;;19.80;99.90;;;;;;5050793;28;20519;-66
2022/06/04 07:29:23;;;;;;;1999.90;999.90;;;20.10;99.90;;;;;;5050499;28;20976;-66
2022/06/04 07:31:50;;;;;;;1999.90;999.90;;;20.00;99.90;;;;;;5050858;28;20458;-65
2022/06/04 07:34:17;;;;;;;1999.90;999.90;;;20.10;99.90;;;;;;5049355;28;20540;-66
2022/06/04 07:36:46;;;;;;;1999.90;999.90;;;20.10;99.90;;;;;;5049116;28;20460;-66
2022/06/04 07:39:17;;;;;;;1999.90;999.90;;;20.30;99.90;;;;;;5050591;28;20454;-66
2022/06/04 07:41:45;;;;;;;1999.90;999.90;;;20.40;99.90;;;;;;5050674;28;20477;-66
2022/06/04 07:44:14;;;;;;;1999.90;999.90;;;20.20;99.90;;;;;;5051278;28;20563;-64
2022/06/04 07:46:41;;;;;;;1999.90;999.90;;;20.20;99.90;;;;;;5050648;28;20458;-64
2022/06/04 07:49:10;;;;;;;1999.90;999.90;;;20.30;99.90;;;;;;5051249;28;20877;-67
2022/06/04 07:51:38;;;;;;;1999.90;999.90;;;20.30;99.90;;;;;;5050950;28;20458;-66
2022/06/04 07:54:08;;;;;;;1999.90;999.90;;;20.30;99.90;;;;;;5051689;28;20482;-64
2022/06/04 07:56:36;;;;;;;1999.90;999.90;;;20.30;99.90;;;;;;5050054;28;20521;-65
2022/06/04 07:59:03;;;;;;;1999.90;999.90;;;20.10;99.90;;;;;;5046033;28;20964;-67
2022/06/04 08:01:30;;;;;;;1999.90;999.90;;;20.30;99.90;;;;;;5050126;28;20458;-67
2022/06/04 08:03:57;;;;;;;1999.90;999.90;;;20.40;99.90;;;;;;5049933;28;20519;-66
2022/06/04 08:06:25;;;;;;;1999.90;999.90;;;20.60;99.90;;;;;;5049107;28;20527;-63
2022/06/04 08:08:55;;;;;;;1999.90;999.90;;;20.30;99.90;;;;;;5050733;28;20463;-63
2022/06/04 08:11:35;;;;;;;1999.90;999.90;;;20.40;99.90;;;;;;5048232;28;20495;-66
2022/06/04 08:14:06;;;;;;;1999.90;999.90;;;20.40;99.90;;;;;;5047712;28;20544;-66
2022/06/04 08:16:34;;;;;;;1999.90;999.90;;;21.00;99.90;;;;;;5047581;28;20846;-66
2022/06/04 08:19:00;;;;;;;1999.90;999.90;;;21.10;99.90;;;;;;5045496;28;20946;-66
2022/06/04 08:21:27;;;;;;;1999.90;999.90;;;20.90;99.90;;;;;;5049379;28;20454;-66
2022/06/04 08:23:54;;;;;;;1999.90;999.90;;;20.60;99.90;;;;;;5050991;28;20470;-68
2022/06/04 08:26:20;;;;;;;1999.90;999.90;;;20.70;99.90;;;;;;5050247;28;20519;-67
2022/06/04 08:28:50;;;;;;;1999.90;999.90;;;20.90;99.90;;;;;;5049941;28;20462;-68
2022/06/04 08:31:17;;;;;;;1999.90;999.90;;;21.20;99.90;;;;;;5049951;28;20485;-69
2022/06/04 08:33:44;;;;;;;1999.90;999.90;;;21.30;99.90;;;;;;5048138;28;20483;-67
2022/06/04 08:36:13;;;;;;;1999.90;999.90;;;21.90;99.90;;;;;;5049101;28;20504;-68
2022/06/04 08:38:40;;;;;;;1999.90;999.90;;;22.40;99.80;;;;;;5048721;28;20496;-70
2022/06/04 08:41:17;;;;;;;1999.90;999.90;;;22.10;99.00;;;;;;5050925;28;20536;-68
2022/06/04 08:43:51;;;;;;;1999.90;999.90;;;21.90;99.10;;;;;;5049802;28;20478;-69
2022/06/04 08:46:28;;;;;;;1999.90;999.90;;;21.80;98.60;;;;;;5049936;28;21093;-70
2022/06/04 08:48:57;;;;;;;1999.90;999.90;;;21.30;99.00;;;;;;5048813;28;20896;-68
2022/06/04 08:51:28;;;;;;;1999.90;999.90;;;21.50;99.00;;;;;;5050344;28;20527;-68
2022/06/04 08:53:58;;;;;;;1999.90;999.90;;;21.30;99.80;;;;;;5046318;28;20543;-69
2022/06/04 08:59:23;;;;;;;1999.90;999.90;;;21.50;99.10;;;;;;5048514;28;20460;-69
2022/06/04 09:01:55;;;;;;;1999.90;999.90;;;22.00;99.30;;;;;;5050569;28;20524;-68
2022/06/04 09:04:42;;;;;;;1999.90;999.90;;;22.10;98.50;;;;;;5047136;28;20454;-69
2022/06/04 09:07:13;;;;;;;1999.90;999.90;;;22.20;98.50;;;;;;5047755;28;20481;-68
2022/06/04 09:09:44;;;;;;;1999.90;999.90;;;22.60;97.90;;;;;;5048619;28;20462;-68
2022/06/04 09:12:24;;;;;;;1999.90;999.90;;;22.90;97.50;;;;;;5048991;28;20462;-69
2022/06/04 09:14:58;;;;;;;1999.90;999.90;;;23.00;97.40;;;;;;5050405;28;20474;-68
2022/06/04 09:17:34;;;;;;;1999.90;999.90;;;22.80;97.30;;;;;;5047793;28;20513;-69
2022/06/04 09:20:02;;;;;;;1999.90;999.90;;;22.90;97.70;;;;;;5047761;28;20462;-67
2022/06/04 09:22:35;;;;;;;1999.90;999.90;;;23.40;97.00;;;;;;5048531;28;20481;-66
2022/06/04 09:25:03;;;;;;;1999.90;999.90;;;23.30;96.10;;;;;;5049464;28;20454;-66
2022/06/04 09:27:38;;;;;;;1999.90;999.90;;;23.40;95.90;;;;;;5048181;28;20470;-67
2022/06/04 09:30:20;;;;;;;1999.90;999.90;;;23.10;95.40;;;;;;5044818;28;20946;-68
2022/06/04 09:32:57;;;;;;;1999.90;999.90;;;23.00;96.10;;;;;;5049072;28;20584;-66
2022/06/04 09:35:27;;;;;;;1999.90;999.90;;;23.60;95.80;;;;;;5048727;28;20470;-66
2022/06/04 09:37:54;;;;;;;1999.90;999.90;;;24.00;94.90;;;;;;5049170;28;20471;-67
2022/06/04 09:40:24;;;;;;;1999.90;999.90;;;24.10;94.70;;;;;;5048089;28;20516;-66
2022/06/04 09:42:52;;;;;;;1999.90;999.90;;;24.10;94.70;;;;;;5050007;28;20474;-66
2022/06/04 09:45:26;;;;;;;1999.90;999.90;;;24.40;94.40;;;;;;5047404;28;20945;-66
2022/06/04 09:47:57;;;;;;;1999.90;999.90;;;24.40;94.00;;;;;;5045430;28;20954;-68
2022/06/04 09:50:27;;;;;;;1999.90;999.90;;;24.20;94.10;;;;;;5048757;28;20462;-66
2022/06/04 09:53:00;;;;;;;1999.90;999.90;;;24.20;94.00;;;;;;5048136;28;20523;-66
2022/06/04 09:55:28;;;;;;;1999.90;999.90;;;24.00;94.20;;;;;;5046968;28;20485;-70
2022/06/04 09:58:00;;;;;;;1999.90;999.90;;;23.90;94.50;;;;;;5048488;28;20466;-65
2022/06/04 10:00:30;;;;;;;1999.90;999.90;;;24.10;94.00;;;;;;5048548;28;20462;-71
2022/06/04 10:02:59;;;;;;;1999.90;999.90;;;24.10;94.40;;;;;;5044826;28;20506;-66
2022/06/04 10:05:28;;;;;;;1999.90;999.90;;;23.90;94.30;;;;;;5046679;28;20525;-66
2022/06/04 10:07:56;;;;;;;1999.90;999.90;;;23.90;94.00;;;;;;5049475;28;20969;-66
2022/06/04 10:10:28;;;;;;;1999.90;999.90;;;23.90;93.90;;;;;;5051033;28;20942;-68
2022/06/04 10:15:44;;;;;;;1999.90;999.90;;;23.60;94.90;;;;;;5050872;28;20850;-66
2022/06/04 10:18:18;;;;;;;1999.90;999.90;;;23.50;94.70;;;;;;5047947;28;21150;-67
2022/06/04 10:20:56;;;;;;;1999.90;999.90;;;23.60;94.20;;;;;;5045956;28;20470;-67
2022/06/04 10:23:24;;;;;;;1999.90;999.90;;;23.60;94.20;;;;;;5045517;28;20486;-68
2022/06/04 10:26:12;;;;;;;1999.90;999.90;;;23.40;94.20;;;;;;5049134;28;20502;-68
2022/06/04 10:28:49;;;;;;;1999.90;999.90;;;23.40;94.90;;;;;;5046467;28;21083;-66
2022/06/04 10:31:27;;;;;;;1999.90;999.90;;;23.70;94.90;;;;;;5051506;28;20488;-65
2022/06/04 10:34:01;;;;;;;1999.90;999.90;;;24.00;95.00;;;;;;5048097;28;21001;-67
2022/06/04 10:36:41;;;;;;;1999.90;999.90;;;23.90;94.70;;;;;;5051292;28;20458;-70
2022/06/04 10:39:21;;;;;;;1999.90;999.90;;;24.00;94.30;;;;;;5051856;28;20461;-70
2022/06/04 10:41:53;;;;;;;1999.90;999.90;;;23.40;95.30;;;;;;5050321;28;20458;-68
2022/06/04 10:44:36;;;;;;;1999.90;999.90;;;23.80;95.40;;;;;;5051638;28;20481;-68
2022/06/04 10:47:08;;;;;;;1999.90;999.90;;;24.00;94.80;;;;;;5052204;28;20514;-69
2022/06/04 10:50:01;;;;;;;1999.90;999.90;;;24.10;94.30;;;;;;5051849;28;20457;-70
2022/06/04 10:52:35;;;;;;;1999.90;999.90;;;24.00;94.50;;;;;;5050941;28;20490;-69
2022/06/04 10:55:11;;;;;;;1999.90;999.90;;;23.80;94.20;;;;;;5050752;28;20482;-66
2022/06/04 10:57:46;;;;;;;1999.90;999.90;;;23.90;94.40;;;;;;5051576;28;20470;-67
2022/06/04 11:00:18;;;;;;;1999.90;999.90;;;24.10;94.10;;;;;;5051921;28;20466;-66
2022/06/04 11:02:51;;;;;;;1999.90;999.90;;;24.50;93.60;;;;;;5050923;28;20486;-66
2022/06/04 11:05:24;;;;;;;1999.90;999.90;;;24.40;92.90;;;;;;5050363;28;20446;-65
2022/06/04 11:07:57;;;;;;;1999.90;999.90;;;24.50;93.00;;;;;;5048516;28;20493;-66
2022/06/04 11:10:29;;;;;;;1999.90;999.90;;;24.60;93.10;;;;;;5049782;28;20494;-66
2022/06/04 11:13:04;;;;;;;1999.90;999.90;;;24.90;92.70;;;;;;5051189;28;20482;-66
2022/06/04 11:15:35;;;;;;;1999.90;999.90;;;24.90;93.00;;;;;;5049880;28;21008;-66
2022/06/04 11:18:12;;;;;;;1999.90;999.90;;;24.90;92.50;;;;;;5049997;28;20462;-65
2022/06/04 11:20:43;;;;;;;1999.90;999.90;;;24.90;92.90;;;;;;5051423;28;20469;-66
2022/06/04 11:23:24;;;;;;;1999.90;999.90;;;24.50;92.10;;;;;;5051054;28;21066;-66
2022/06/04 11:25:56;;;;;;;1999.90;999.90;;;24.70;92.10;;;;;;5050701;28;22302;-66
2022/06/04 11:28:26;;;;;;;1999.90;999.90;;;24.70;92.20;;;;;;5048791;28;20804;-66
2022/06/04 11:31:03;;;;;;;1999.90;999.90;;;24.40;92.70;;;;;;5051238;28;20458;-66
2022/06/04 11:34:02;;;;;;;1999.90;999.90;;;24.60;92.90;;;;;;5052387;28;20478;-66
2022/06/04 11:36:37;;;;;;;1999.90;999.90;;;25.20;92.80;;;;;;5051871;28;20528;-66
2022/06/04 11:39:17;;;;;;;1999.90;999.90;;;25.40;92.20;;;;;;5049619;28;20546;-66
2022/06/04 11:41:54;;;;;;;1999.90;999.90;;;25.60;91.40;;;;;;5050019;28;20462;-64
2022/06/04 11:44:36;;;;;;;1999.90;999.90;;;25.50;91.30;;;;;;5058713;22;20498;-70
2022/06/04 11:47:17;;;;;;;1999.90;999.90;;;25.60;91.20;;;;;;5041934;28;20529;-69
2022/06/04 11:49:53;;;;;;;1999.90;999.90;;;25.70;91.10;;;;;;5039367;28;20458;-70
2022/06/04 11:52:26;;;;;;;1999.90;999.90;;;25.80;90.50;;;;;;5045206;28;20508;-70
2022/06/04 11:55:12;;;;;;;1999.90;999.90;;;25.40;91.00;;;;;;5024490;28;20571;-70
2022/06/04 11:57:49;;;;;;;1999.90;999.90;;;24.90;91.20;;;;;;5025584;28;20459;-70
2022/06/04 12:00:22;;;;;;;1999.90;999.90;;;24.90;91.80;;;;;;5023336;28;20468;-73
2022/06/04 12:02:56;;;;;;;1999.90;999.90;;;25.00;92.10;;;;;;5023983;28;21014;-72
2022/06/04 12:05:33;;;;;;;1999.90;999.90;;;25.10;91.80;;;;;;5023939;28;20498;-70
2022/06/04 12:08:04;;;;;;;1999.90;999.90;;;25.20;91.70;;;;;;5024042;28;20468;-71
2022/06/04 12:10:58;;;;;;;1999.90;999.90;;;25.20;91.20;;;;;;5025779;28;20477;-70
2022/06/04 12:13:32;;;;;;;1999.90;999.90;;;25.30;91.00;;;;;;5021355;28;20542;-70
2022/06/04 12:16:03;;;;;;;1999.90;999.90;;;25.10;91.10;;;;;;5024077;28;20533;-70
2022/06/04 12:18:34;;;;;;;1999.90;999.90;;;24.90;91.20;;;;;;5025843;28;20459;-70
2022/06/04 12:24:16;;;;;;;1999.90;999.90;;;24.90;90.50;;;;;;5022953;28;20474;-71
2022/06/04 12:26:47;;;;;;;1999.90;999.90;;;25.20;90.80;;;;;;5025054;28;20905;-70
2022/06/04 12:29:34;;;;;;;1999.90;999.90;;;25.40;90.00;;;;;;5023604;28;20467;-71
2022/06/04 12:32:03;;;;;;;1999.90;999.90;;;25.60;90.50;;;;;;5023248;28;20509;-73
2022/06/04 12:34:34;;;;;;;1999.90;999.90;;;25.50;89.30;;;;;;5023884;28;20534;-72
2022/06/04 12:37:04;;;;;;;1999.90;999.90;;;25.30;88.90;;;;;;5022839;28;20529;-72